M\t Procida — IBJT — position and weather

sailwx.info

Track history (hours):
 
Tides and Currents Weather Stations Pressure Air Temp Water Temp Dewpoint Dewpoint Depression Visibility Wind Speed Wind Dir Waves Ship Positions

M\t Procida

Last reported at 2014-Aug-01 00:09 UTC. Time now 2014-Aug-01 22:34 UTC.
Position N 36°32' E 014°47'.

Length 149 m; draft 7.5 m.

Type: Ship (hazmat cat A). MMSI: 247258400.

Date/timePositionNaut miles runAvg speedWind from/ knotsBaromVisibWave heightAir tempDewpointWater temp
2014-Aug-01 00:09N 36°32' E 014°47'712.1
2014-Jul-31 23:33N 36°37' E 014°40'1312.9
2014-Jul-31 22:33N 36°44' E 014°27'1312.9
2014-Jul-31 21:33N 36°50' E 014°13'1312.7
2014-Jul-31 20:33N 36°57' E 013°59'1313.0
2014-Jul-31 19:33N 37°03' E 013°45'49213.2
2014-Jul-30 06:22N 39°49' E 003°53'910.6
2014-Jul-30 05:31N 39°45' E 003°43'1313.0
2014-Jul-30 04:32N 39°34' E 003°34'1212.8
2014-Jul-30 03:33N 39°24' E 003°25'1312.6
2014-Jul-30 02:33N 39°13' E 003°16'1312.6
2014-Jul-30 01:33N 39°03' E 003°07'10 9.6
2014-Jul-30 00:33N 39°01' E 002°55'1312.6
2014-Jul-29 23:33N 39°06' E 002°40'1212.5
2014-Jul-29 22:33N 39°11' E 002°25'1212.5
2014-Jul-29 21:33N 39°16' E 002°10'1212.3
2014-Jul-29 20:33N 39°20' E 001°56'1212.1
2014-Jul-29 19:33N 39°24' E 001°41'1212.0
2014-Jul-29 18:33N 39°29' E 001°27'1212.0
2014-Jul-29 17:33N 39°33' E 001°12'47 1.0
2014-Jul-27 19:16N 39°53' E 000°16'1 1.2
2014-Jul-27 18:30N 39°53' E 000°17'1212.2
2014-Jul-27 17:32N 39°47' E 000°31'1212.6
2014-Jul-27 16:33N 39°42' E 000°45'8611.7
2014-Jul-27 09:13N 39°10' E 002°28'812.3
2014-Jul-27 08:33N 39°07' E 002°38'1312.7
2014-Jul-27 07:33N 39°02' E 002°54'1212.3
2014-Jul-27 06:33N 39°01' E 003°09'1312.6
2014-Jul-27 05:33N 38°60' E 003°25'1312.8
2014-Jul-27 04:33N 38°58' E 003°42'1312.9
2014-Jul-27 03:33N 38°56' E 003°58'1512.7
2014-Jul-27 02:24N 38°53' E 004°17'1112.6
2014-Jul-27 01:33N 38°51' E 004°30'1312.5
2014-Jul-27 00:33N 38°49' E 004°46'1412.4
2014-Jul-26 23:25N 38°47' E 005°04'33 4.6
2014-Jul-26 16:18N 38°45' E 005°46'1412.1
2014-Jul-26 15:09N 38°42' E 006°03'811.9
2014-Jul-26 14:28N 38°40' E 006°13'10112.3
2014-Jul-26 06:13N 38°13' E 008°18'2313.4
2014-Jul-26 04:31N 38°05' E 008°45'1313.3
2014-Jul-26 03:32N 37°60' E 009°00'1313.5
2014-Jul-26 02:33N 37°56' E 009°17'1513.4
2014-Jul-26 01:28N 37°52' E 009°34'1213.7
2014-Jul-26 00:33N 37°48' E 009°50'1413.4
2014-Jul-25 23:29N 37°44' E 010°07'1213.1
2014-Jul-25 22:33N 37°41' E 010°22'6813.7
2014-Jul-25 17:33N 37°15' E 011°42'1413.9
2014-Jul-25 16:33N 37°09' E 011°57'1413.7
2014-Jul-25 15:33N 37°03' E 012°13'1313.0
2014-Jul-25 14:33N 36°56' E 012°27'1312.6
2014-Jul-25 13:33N 36°51' E 012°41'1212.2
2014-Jul-25 12:33N 36°45' E 012°55'1212.0
2014-Jul-25 11:33N 36°40' E 013°08'1312.7
2014-Jul-25 10:33N 36°34' E 013°22'1312.7
2014-Jul-25 09:33N 36°28' E 013°36'1312.9
2014-Jul-25 08:33N 36°22' E 013°50'1312.6
2014-Jul-25 07:33N 36°16' E 014°04'1212.4
2014-Jul-25 06:33N 36°10' E 014°17'1312.7
2014-Jul-25 05:33N 36°02' E 014°30'1212.0
2014-Jul-25 04:32N 35°52' E 014°38'3 3.1
2014-Jul-25 03:33N 35°49' E 014°35'0 0.0
2014-Jul-25 02:27N 35°49' E 014°35'0 0.0
2014-Jul-25 01:33N 35°49' E 014°35'0 0.0
2014-Jul-25 00:33N 35°49' E 014°35'0 0.0
2014-Jul-24 23:30N 35°49' E 014°35'1 0.8
2014-Jul-24 22:33N 35°50' E 014°36'1211.5
2014-Jul-24 21:34N 35°58' E 014°46'1413.6
2014-Jul-24 20:33N 36°08' E 014°57'1413.5
2014-Jul-24 19:29N 36°22' E 015°04'  
Track history (hours):
 
Tides and Currents Weather Stations Pressure Air Temp Water Temp Dewpoint Dewpoint Depression Visibility Wind Speed Wind Dir Waves Ship Positions

M\t Procida

Last reported at 2014-Aug-01 00:09 UTC. Time now 2014-Aug-01 22:34 UTC.
Position N 36°32' E 014°47'.

Length 149 m; draft 7.5 m.

Type: Ship (hazmat cat A). MMSI: 247258400.

Date/timePositionNaut miles runAvg speedWind from/ knotsBaromVisibWave heightAir tempDewpointWater temp
2014-Aug-01 00:09N 36°32' E 014°47'712.1
2014-Jul-31 23:33N 36°37' E 014°40'1312.9
2014-Jul-31 22:33N 36°44' E 014°27'1312.9
2014-Jul-31 21:33N 36°50' E 014°13'1312.7
2014-Jul-31 20:33N 36°57' E 013°59'1313.0
2014-Jul-31 19:33N 37°03' E 013°45'49213.2
2014-Jul-30 06:22N 39°49' E 003°53'910.6
2014-Jul-30 05:31N 39°45' E 003°43'1313.0
2014-Jul-30 04:32N 39°34' E 003°34'1212.8
2014-Jul-30 03:33N 39°24' E 003°25'1312.6
2014-Jul-30 02:33N 39°13' E 003°16'1312.6
2014-Jul-30 01:33N 39°03' E 003°07'10 9.6
2014-Jul-30 00:33N 39°01' E 002°55'1312.6
2014-Jul-29 23:33N 39°06' E 002°40'1212.5
2014-Jul-29 22:33N 39°11' E 002°25'1212.5
2014-Jul-29 21:33N 39°16' E 002°10'1212.3
2014-Jul-29 20:33N 39°20' E 001°56'1212.1
2014-Jul-29 19:33N 39°24' E 001°41'1212.0
2014-Jul-29 18:33N 39°29' E 001°27'1212.0
2014-Jul-29 17:33N 39°33' E 001°12'47 1.0
2014-Jul-27 19:16N 39°53' E 000°16'1 1.2
2014-Jul-27 18:30N 39°53' E 000°17'1212.2
2014-Jul-27 17:32N 39°47' E 000°31'1212.6
2014-Jul-27 16:33N 39°42' E 000°45'8611.7
2014-Jul-27 09:13N 39°10' E 002°28'812.3
2014-Jul-27 08:33N 39°07' E 002°38'1312.7
2014-Jul-27 07:33N 39°02' E 002°54'1212.3
2014-Jul-27 06:33N 39°01' E 003°09'1312.6
2014-Jul-27 05:33N 38°60' E 003°25'1312.8
2014-Jul-27 04:33N 38°58' E 003°42'1312.9
2014-Jul-27 03:33N 38°56' E 003°58'1512.7
2014-Jul-27 02:24N 38°53' E 004°17'1112.6
2014-Jul-27 01:33N 38°51' E 004°30'1312.5
2014-Jul-27 00:33N 38°49' E 004°46'1412.4
2014-Jul-26 23:25N 38°47' E 005°04'33 4.6
2014-Jul-26 16:18N 38°45' E 005°46'1412.1
2014-Jul-26 15:09N 38°42' E 006°03'811.9
2014-Jul-26 14:28N 38°40' E 006°13'10112.3
2014-Jul-26 06:13N 38°13' E 008°18'2313.4
2014-Jul-26 04:31N 38°05' E 008°45'1313.3
2014-Jul-26 03:32N 37°60' E 009°00'1313.5
2014-Jul-26 02:33N 37°56' E 009°17'1513.4
2014-Jul-26 01:28N 37°52' E 009°34'1213.7
2014-Jul-26 00:33N 37°48' E 009°50'1413.4
2014-Jul-25 23:29N 37°44' E 010°07'1213.1
2014-Jul-25 22:33N 37°41' E 010°22'6813.7
2014-Jul-25 17:33N 37°15' E 011°42'1413.9
2014-Jul-25 16:33N 37°09' E 011°57'1413.7
2014-Jul-25 15:33N 37°03' E 012°13'1313.0
2014-Jul-25 14:33N 36°56' E 012°27'1312.6
2014-Jul-25 13:33N 36°51' E 012°41'1212.2
2014-Jul-25 12:33N 36°45' E 012°55'1212.0
2014-Jul-25 11:33N 36°40' E 013°08'1312.7
2014-Jul-25 10:33N 36°34' E 013°22'1312.7
2014-Jul-25 09:33N 36°28' E 013°36'1312.9
2014-Jul-25 08:33N 36°22' E 013°50'1312.6
2014-Jul-25 07:33N 36°16' E 014°04'1212.4
2014-Jul-25 06:33N 36°10' E 014°17'1312.7
2014-Jul-25 05:33N 36°02' E 014°30'1212.0
2014-Jul-25 04:32N 35°52' E 014°38'3 3.1
2014-Jul-25 03:33N 35°49' E 014°35'0 0.0
2014-Jul-25 02:27N 35°49' E 014°35'0 0.0
2014-Jul-25 01:33N 35°49' E 014°35'0 0.0
2014-Jul-25 00:33N 35°49' E 014°35'0 0.0
2014-Jul-24 23:30N 35°49' E 014°35'1 0.8
2014-Jul-24 22:33N 35°50' E 014°36'1211.5
2014-Jul-24 21:34N 35°58' E 014°46'1413.6
2014-Jul-24 20:33N 36°08' E 014°57'1413.5
2014-Jul-24 19:29N 36°22' E 015°04'  

Dump ship's entire track history